Time;durP1;ratioP1;P1;durP2;ratioP2;P2;SDS_P1;SDS_P2;PMS_P1;PMS_P2;Temp;Humidity;BMP_temperature;BMP_pressure;BME280_temperature;BME280_humidity;BME280_pressure;Samples;Min_cycle;Max_cycle;Signal;HPM_P1;HPM_P2
2022/02/27 00:00:18;;;;;;;6.45;1.77;;;22.70;99.90;;;;;;5035606;28;20072;-66
2022/02/27 00:02:45;;;;;;;9.70;3.45;;;23.00;99.90;;;;;;5035503;28;20474;-66
2022/02/27 00:05:13;;;;;;;7.60;2.20;;;23.20;99.90;;;;;;5016637;28;20024;-66
2022/02/27 00:07:40;;;;;;;6.70;1.30;;;23.40;99.90;;;;;;5019413;28;20112;-66
2022/02/27 00:10:08;;;;;;;3.15;0.75;;;23.60;99.90;;;;;;5021662;28;20048;-67
2022/02/27 00:12:36;;;;;;;4.53;1.17;;;23.70;99.90;;;;;;5034659;28;20334;-66
2022/02/27 00:15:04;;;;;;;5.65;0.70;;;23.80;99.90;;;;;;5032658;28;20057;-67
2022/02/27 00:17:31;;;;;;;5.78;0.85;;;23.90;99.90;;;;;;5034799;28;20093;-67
2022/02/27 00:19:59;;;;;;;5.05;1.35;;;23.90;99.90;;;;;;5035051;28;20051;-67
2022/02/27 00:22:26;;;;;;;3.10;0.80;;;23.90;99.90;;;;;;5032442;28;20021;-66
2022/02/27 00:24:53;;;;;;;3.92;0.98;;;23.60;99.90;;;;;;5016657;28;20029;-66
2022/02/27 00:27:21;;;;;;;7.82;1.10;;;23.40;99.90;;;;;;5034860;28;20022;-66
2022/02/27 00:29:48;;;;;;;6.97;1.50;;;23.30;99.90;;;;;;5032068;28;20029;-66
2022/02/27 00:32:15;;;;;;;6.32;1.10;;;23.20;99.90;;;;;;5034949;28;20040;-67
2022/02/27 00:34:42;;;;;;;4.60;1.13;;;23.20;99.90;;;;;;5039400;28;20029;-67
2022/02/27 00:37:09;;;;;;;8.35;1.48;;;23.20;99.90;;;;;;5034368;28;20045;-66
2022/02/27 00:39:37;;;;;;;4.93;1.27;;;23.10;99.90;;;;;;5035588;28;20088;-65
2022/02/27 00:42:04;;;;;;;7.38;1.75;;;23.00;99.90;;;;;;5041955;28;20026;-64
2022/02/27 00:44:32;;;;;;;7.60;0.95;;;23.10;99.90;;;;;;5045132;28;20032;-64
2022/02/27 00:46:59;;;;;;;7.45;1.10;;;23.10;99.90;;;;;;5046842;28;20040;-65
2022/02/27 00:49:26;;;;;;;6.72;1.63;;;23.00;99.90;;;;;;5054614;28;20033;-65
2022/02/27 00:51:54;;;;;;;9.70;1.45;;;22.90;99.90;;;;;;5064947;28;20117;-65
2022/02/27 00:54:21;;;;;;;9.00;1.50;;;23.00;99.90;;;;;;5046940;28;20022;-65
2022/02/27 00:56:48;;;;;;;9.10;1.60;;;22.90;99.90;;;;;;5047891;28;20043;-65
2022/02/27 00:59:16;;;;;;;6.07;1.65;;;23.10;99.90;;;;;;5041352;28;20487;-65
2022/02/27 01:01:43;;;;;;;7.22;1.40;;;23.00;99.90;;;;;;5011881;28;20030;-65
2022/02/27 01:04:10;;;;;;;11.73;2.10;;;23.00;99.90;;;;;;5036721;28;20036;-65
2022/02/27 01:06:38;;;;;;;6.95;1.85;;;23.00;99.90;;;;;;5049989;28;20025;-65
2022/02/27 01:09:06;;;;;;;8.25;1.20;;;23.00;99.90;;;;;;5042714;28;20042;-65
2022/02/27 01:11:35;;;;;;;6.20;1.23;;;22.90;99.90;;;;;;5049828;28;20033;-65
2022/02/27 01:14:03;;;;;;;8.10;1.50;;;22.80;99.90;;;;;;5054973;28;20025;-65
2022/02/27 01:16:31;;;;;;;10.55;1.30;;;22.90;99.90;;;;;;5050607;28;20022;-65
2022/02/27 01:18:58;;;;;;;7.28;1.17;;;22.80;99.90;;;;;;5049511;28;20041;-65
2022/02/27 01:21:25;;;;;;;6.15;1.33;;;22.70;99.90;;;;;;5051684;28;20109;-65
2022/02/27 01:23:53;;;;;;;7.13;1.00;;;22.60;99.90;;;;;;5048265;28;20021;-65
2022/02/27 01:26:20;;;;;;;7.95;1.13;;;22.50;99.90;;;;;;5049241;28;20022;-65
2022/02/27 01:28:47;;;;;;;7.68;1.30;;;22.50;99.90;;;;;;5051813;28;20048;-65
2022/02/27 01:31:14;;;;;;;9.93;1.42;;;22.60;99.90;;;;;;5070195;28;20057;-65
2022/02/27 01:33:42;;;;;;;11.95;1.40;;;22.60;99.90;;;;;;5066059;28;20033;-65
2022/02/27 01:36:09;;;;;;;9.23;1.42;;;22.60;99.90;;;;;;5054573;28;20117;-65
2022/02/27 01:38:36;;;;;;;4.40;1.33;;;22.50;99.90;;;;;;5054686;28;20025;-65
2022/02/27 01:41:04;;;;;;;5.55;1.27;;;22.60;99.90;;;;;;5072535;22;20059;-65
2022/02/27 01:43:31;;;;;;;4.97;0.95;;;22.50;99.90;;;;;;5070784;28;20443;-64
2022/02/27 01:45:59;;;;;;;6.72;1.85;;;22.50;99.90;;;;;;5072404;28;20028;-65
2022/02/27 01:48:26;;;;;;;6.03;1.70;;;22.50;99.90;;;;;;5071329;28;20054;-65
2022/02/27 01:50:53;;;;;;;5.43;1.13;;;22.60;99.90;;;;;;5072848;28;20087;-65
2022/02/27 01:53:20;;;;;;;5.65;1.20;;;22.70;99.90;;;;;;5072266;28;20033;-65
2022/02/27 01:55:48;;;;;;;8.00;1.50;;;22.80;99.90;;;;;;5073901;28;20054;-65
2022/02/27 01:58:15;;;;;;;4.40;0.63;;;22.90;99.90;;;;;;5073050;28;20052;-65
2022/02/27 02:00:43;;;;;;;6.40;1.25;;;23.00;99.90;;;;;;5073169;28;20029;-65
2022/02/27 02:03:11;;;;;;;7.35;1.88;;;23.00;99.90;;;;;;5072742;28;20028;-65
2022/02/27 02:05:39;;;;;;;7.00;1.70;;;23.10;99.90;;;;;;5071618;28;20048;-65
2022/02/27 02:08:06;;;;;;;4.50;0.80;;;23.30;99.90;;;;;;5052105;28;20083;-65
2022/02/27 02:10:33;;;;;;;6.05;0.80;;;23.40;99.90;;;;;;5069199;28;20029;-65
2022/02/27 02:13:01;;;;;;;2.97;1.38;;;23.40;99.90;;;;;;5072117;28;20067;-65
2022/02/27 02:15:28;;;;;;;5.78;1.10;;;23.50;99.90;;;;;;5070426;28;20074;-66
2022/02/27 02:17:55;;;;;;;4.45;0.93;;;23.90;99.90;;;;;;5069820;28;20055;-66
2022/02/27 02:20:23;;;;;;;5.10;0.80;;;24.00;99.90;;;;;;5063577;28;20126;-66
2022/02/27 02:22:50;;;;;;;4.95;0.85;;;24.10;99.90;;;;;;5072807;28;20047;-66
2022/02/27 02:25:17;;;;;;;6.90;1.40;;;24.20;99.90;;;;;;5071655;28;20033;-66
2022/02/27 02:27:44;;;;;;;6.47;0.88;;;24.40;99.90;;;;;;5072909;28;20059;-66
2022/02/27 02:30:13;;;;;;;4.03;0.85;;;24.60;99.90;;;;;;5070955;28;20033;-66
2022/02/27 02:33:09;;;;;;;4.45;0.82;;;24.60;99.90;;;;;;5071650;28;20021;-66
2022/02/27 02:35:36;;;;;;;4.72;1.00;;;24.50;99.90;;;;;;5040011;28;20390;-66
2022/02/27 02:38:05;;;;;;;4.03;0.70;;;24.60;99.90;;;;;;5054517;28;20057;-66
2022/02/27 02:40:32;;;;;;;6.72;1.48;;;24.40;99.90;;;;;;5069169;28;20045;-66
2022/02/27 02:43:00;;;;;;;4.05;1.17;;;24.30;99.90;;;;;;5064378;28;20045;-66
2022/02/27 02:45:27;;;;;;;3.97;1.00;;;24.40;99.90;;;;;;5066534;28;20408;-65
2022/02/27 02:47:56;;;;;;;5.15;0.75;;;24.50;99.90;;;;;;5070576;28;20499;-65
2022/02/27 02:50:23;;;;;;;3.92;1.30;;;24.60;99.90;;;;;;5069687;28;20029;-65
2022/02/27 02:52:51;;;;;;;4.40;1.10;;;24.50;99.90;;;;;;5068802;28;20556;-65
2022/02/27 02:55:19;;;;;;;6.10;0.98;;;24.50;99.90;;;;;;5060027;28;20020;-65
2022/02/27 02:57:47;;;;;;;4.65;1.00;;;24.30;99.90;;;;;;5072238;28;20045;-65
2022/02/27 03:00:14;;;;;;;7.50;1.35;;;24.30;99.90;;;;;;5073433;28;20029;-65
2022/02/27 03:02:42;;;;;;;8.18;1.10;;;24.20;99.90;;;;;;5067861;28;20059;-65
2022/02/27 03:05:10;;;;;;;5.13;1.73;;;24.10;99.90;;;;;;5066024;28;20020;-64
2022/02/27 03:07:38;;;;;;;6.18;1.27;;;24.10;99.90;;;;;;5053873;28;20101;-64
2022/02/27 03:10:07;;;;;;;5.20;1.15;;;24.20;99.90;;;;;;5067612;28;20008;-64
2022/02/27 03:12:34;;;;;;;5.80;1.38;;;24.30;99.90;;;;;;5069481;28;20025;-64
2022/02/27 03:15:03;;;;;;;4.78;1.38;;;24.40;99.90;;;;;;5052599;28;20082;-64
2022/02/27 03:17:30;;;;;;;6.10;1.00;;;24.70;99.90;;;;;;5052976;28;20021;-64
2022/02/27 03:19:58;;;;;;;5.60;1.27;;;24.90;99.90;;;;;;5056017;28;20028;-64
2022/02/27 03:22:25;;;;;;;7.70;1.52;;;24.80;99.90;;;;;;5020388;28;20029;-64
2022/02/27 03:24:52;;;;;;;6.50;1.20;;;24.60;99.90;;;;;;5057658;28;20061;-64
2022/02/27 03:27:19;;;;;;;8.82;1.58;;;24.40;99.90;;;;;;5067399;28;20047;-65
2022/02/27 03:29:47;;;;;;;7.47;1.48;;;24.20;99.90;;;;;;5054224;28;20060;-64
2022/02/27 03:32:14;;;;;;;5.30;1.13;;;24.00;99.90;;;;;;5065982;28;20021;-64
2022/02/27 03:34:41;;;;;;;7.00;1.60;;;23.80;99.90;;;;;;5065401;28;20075;-64
2022/02/27 03:37:08;;;;;;;8.52;1.67;;;23.70;99.90;;;;;;5068501;28;20495;-64
2022/02/27 03:39:36;;;;;;;8.43;1.48;;;23.60;99.90;;;;;;5063381;28;20111;-65
2022/02/27 03:42:03;;;;;;;6.15;1.13;;;23.70;99.90;;;;;;5067744;28;20489;-64
2022/02/27 03:44:30;;;;;;;5.57;1.40;;;23.70;99.90;;;;;;5050211;28;20055;-64
2022/02/27 03:46:58;;;;;;;9.38;1.30;;;23.70;99.90;;;;;;5064923;28;20108;-65
2022/02/27 03:49:25;;;;;;;5.93;0.68;;;23.80;99.90;;;;;;5063884;28;20013;-62
2022/02/27 03:51:52;;;;;;;7.53;1.30;;;23.80;99.90;;;;;;5067593;28;20111;-62
2022/02/27 03:54:21;;;;;;;6.25;1.15;;;23.90;99.90;;;;;;5066755;28;20024;-63
2022/02/27 03:56:48;;;;;;;5.60;1.17;;;23.90;99.90;;;;;;5066922;28;20086;-63
2022/02/27 03:59:16;;;;;;;5.75;0.70;;;23.80;99.90;;;;;;5067899;28;20096;-63
2022/02/27 04:01:44;;;;;;;6.97;1.13;;;23.90;99.90;;;;;;5054856;28;20021;-63
2022/02/27 04:04:11;;;;;;;6.85;1.00;;;24.00;99.90;;;;;;5058670;28;20048;-63
2022/02/27 04:06:39;;;;;;;6.75;1.35;;;24.10;99.90;;;;;;5060612;28;20047;-63
2022/02/27 04:09:06;;;;;;;9.48;1.30;;;24.10;99.90;;;;;;5065200;28;20281;-63
2022/02/27 04:11:33;;;;;;;5.40;1.05;;;24.20;99.90;;;;;;5064592;28;20343;-63
2022/02/27 04:14:01;;;;;;;9.70;1.42;;;24.30;99.90;;;;;;5063977;28;20035;-63
2022/02/27 04:16:28;;;;;;;9.77;1.02;;;24.30;99.90;;;;;;5063347;28;20021;-63
2022/02/27 04:18:55;;;;;;;10.30;1.30;;;24.30;99.90;;;;;;5046611;28;20030;-63
2022/02/27 04:21:23;;;;;;;6.88;1.27;;;24.20;99.90;;;;;;5053570;28;20099;-63
2022/02/27 04:23:50;;;;;;;7.40;1.33;;;24.30;99.90;;;;;;5061564;28;20027;-64
2022/02/27 04:26:17;;;;;;;5.03;0.73;;;24.30;99.90;;;;;;5050913;28;20262;-63
2022/02/27 04:28:45;;;;;;;5.28;0.95;;;24.20;99.90;;;;;;5065603;28;20061;-64
2022/02/27 04:31:13;;;;;;;5.65;1.20;;;24.30;99.90;;;;;;5045382;28;20021;-63
2022/02/27 04:33:40;;;;;;;6.60;1.27;;;24.20;99.90;;;;;;5046230;28;20025;-63
2022/02/27 04:36:08;;;;;;;5.85;1.08;;;24.20;99.90;;;;;;5061690;28;20353;-64
2022/02/27 04:38:35;;;;;;;9.35;1.17;;;24.20;99.90;;;;;;5064623;28;20029;-64
2022/02/27 04:41:03;;;;;;;8.98;1.42;;;24.30;99.90;;;;;;5065083;28;20049;-64
2022/02/27 04:43:30;;;;;;;7.93;1.20;;;24.20;99.90;;;;;;5064081;28;20044;-64
2022/02/27 04:45:58;;;;;;;7.53;1.88;;;24.10;99.90;;;;;;5064242;28;20032;-64
2022/02/27 04:48:25;;;;;;;4.70;1.30;;;24.10;99.90;;;;;;5057334;28;20044;-64
2022/02/27 04:50:53;;;;;;;4.53;0.85;;;24.10;99.90;;;;;;5045970;28;20151;-64
2022/02/27 04:53:20;;;;;;;10.68;2.03;;;24.10;99.90;;;;;;5064981;28;20025;-64
2022/02/27 04:55:47;;;;;;;6.65;1.30;;;24.20;99.90;;;;;;5062841;28;20032;-64
2022/02/27 04:58:14;;;;;;;8.88;1.40;;;24.30;99.90;;;;;;5062334;28;20021;-64
2022/02/27 05:00:42;;;;;;;6.68;1.50;;;24.30;99.90;;;;;;5061828;28;20056;-64
2022/02/27 05:03:09;;;;;;;4.30;0.77;;;24.20;99.90;;;;;;5064602;28;20040;-64
2022/02/27 05:05:36;;;;;;;6.07;1.00;;;24.30;99.90;;;;;;5063099;28;20021;-64
2022/02/27 05:08:04;;;;;;;4.65;1.10;;;24.40;99.90;;;;;;5056691;28;20059;-64
2022/02/27 05:10:31;;;;;;;3.88;0.75;;;24.50;99.90;;;;;;5060858;28;20104;-64
2022/02/27 05:12:59;;;;;;;5.75;0.82;;;24.70;99.90;;;;;;5061755;28;20041;-64
2022/02/27 05:15:26;;;;;;;6.45;1.20;;;24.70;99.90;;;;;;5058654;28;20029;-64
2022/02/27 05:17:54;;;;;;;6.80;1.05;;;24.70;99.90;;;;;;5058251;28;20496;-64
2022/02/27 05:20:22;;;;;;;7.18;1.52;;;24.70;99.90;;;;;;5041563;28;20067;-65
2022/02/27 05:22:50;;;;;;;2.83;0.50;;;24.70;99.90;;;;;;5060737;28;20032;-65
2022/02/27 05:25:19;;;;;;;4.75;0.93;;;24.60;99.90;;;;;;5059697;28;20033;-64
2022/02/27 05:27:48;;;;;;;4.90;0.90;;;24.60;99.90;;;;;;5056921;28;20036;-64
2022/02/27 05:30:16;;;;;;;3.00;0.73;;;24.60;99.90;;;;;;5054331;28;20020;-64
2022/02/27 05:32:44;;;;;;;6.65;1.50;;;24.50;99.90;;;;;;5055738;28;20024;-64
2022/02/27 05:35:11;;;;;;;8.50;0.95;;;24.40;99.90;;;;;;5057788;28;20033;-64
2022/02/27 05:37:39;;;;;;;7.15;1.75;;;24.30;99.90;;;;;;5047841;28;20089;-64
2022/02/27 05:40:07;;;;;;;9.20;1.58;;;24.20;99.90;;;;;;5053804;28;20017;-64
2022/02/27 05:42:35;;;;;;;5.55;0.95;;;24.20;99.90;;;;;;5047810;28;20053;-64
2022/02/27 05:45:04;;;;;;;10.00;1.00;;;24.00;99.90;;;;;;5052142;28;20033;-64
2022/02/27 05:47:32;;;;;;;4.68;0.52;;;23.90;99.90;;;;;;5049705;28;20421;-64
2022/02/27 05:49:59;;;;;;;5.15;1.27;;;23.80;99.90;;;;;;5052942;28;20028;-64
2022/02/27 05:52:26;;;;;;;6.88;1.00;;;23.80;99.90;;;;;;5054333;28;20031;-64
2022/02/27 05:54:53;;;;;;;7.28;1.10;;;23.80;99.90;;;;;;5051428;28;20033;-63
2022/02/27 05:57:21;;;;;;;7.35;1.20;;;23.60;99.90;;;;;;5052914;28;20064;-64
2022/02/27 05:59:48;;;;;;;4.45;0.82;;;23.50;99.90;;;;;;5043820;28;20079;-64
2022/02/27 06:02:15;;;;;;;5.00;0.88;;;23.60;99.90;;;;;;5032485;28;20163;-64
2022/02/27 06:04:42;;;;;;;5.68;0.80;;;23.50;99.90;;;;;;5048086;28;20035;-64
2022/02/27 06:07:10;;;;;;;3.97;1.05;;;23.50;99.90;;;;;;5041323;28;20036;-64
2022/02/27 06:09:37;;;;;;;7.90;1.10;;;23.60;99.90;;;;;;5052049;28;20112;-64
2022/02/27 06:12:04;;;;;;;6.60;1.20;;;23.50;99.90;;;;;;5052778;28;20124;-64
2022/02/27 06:14:32;;;;;;;4.65;0.90;;;23.50;99.90;;;;;;5052032;28;20052;-64
2022/02/27 06:16:59;;;;;;;4.22;0.75;;;23.50;99.90;;;;;;5053969;28;20017;-64
2022/02/27 06:19:26;;;;;;;5.18;1.05;;;23.50;99.90;;;;;;5041911;28;20034;-64
2022/02/27 06:21:53;;;;;;;4.60;0.85;;;23.50;99.90;;;;;;5046923;28;20083;-64
2022/02/27 06:24:21;;;;;;;3.95;0.70;;;23.50;99.90;;;;;;5057168;28;20021;-64
2022/02/27 06:26:48;;;;;;;6.50;0.93;;;23.50;99.90;;;;;;5057911;28;20048;-64
2022/02/27 06:29:15;;;;;;;6.20;0.80;;;23.40;99.90;;;;;;5047021;28;20049;-64
2022/02/27 06:31:42;;;;;;;5.80;0.80;;;23.40;99.90;;;;;;5041994;28;20025;-64
2022/02/27 06:34:12;;;;;;;6.90;0.80;;;23.40;99.90;;;;;;5055500;28;20546;-64
2022/02/27 06:36:39;;;;;;;4.30;0.82;;;23.40;99.90;;;;;;5055108;28;20021;-64
2022/02/27 06:39:07;;;;;;;3.28;0.55;;;23.40;99.90;;;;;;5057514;28;20033;-63
2022/02/27 06:41:34;;;;;;;4.70;0.73;;;23.40;99.90;;;;;;5056915;28;20056;-64
2022/02/27 06:44:01;;;;;;;2.78;0.57;;;23.40;99.90;;;;;;5041280;28;20029;-64
2022/02/27 06:46:29;;;;;;;3.47;0.60;;;23.30;99.90;;;;;;5037371;28;20101;-64
2022/02/27 06:48:57;;;;;;;1.83;0.47;;;23.30;99.90;;;;;;5046900;28;20033;-64
2022/02/27 06:51:25;;;;;;;6.93;1.38;;;23.30;99.90;;;;;;5037350;28;20081;-64
2022/02/27 06:53:52;;;;;;;4.38;0.80;;;23.30;99.90;;;;;;5037126;28;20025;-64
2022/02/27 06:56:19;;;;;;;5.10;0.68;;;23.30;99.90;;;;;;5047345;28;20408;-64
2022/02/27 06:58:47;;;;;;;3.22;0.82;;;23.40;99.90;;;;;;5037534;28;20029;-64
2022/02/27 07:01:17;;;;;;;3.10;0.95;;;23.30;99.90;;;;;;5048373;28;20488;-64
2022/02/27 07:03:44;;;;;;;8.38;1.00;;;23.30;99.90;;;;;;5045137;28;20043;-64
2022/02/27 07:06:11;;;;;;;4.07;0.82;;;23.20;99.90;;;;;;5052673;28;20041;-64
2022/02/27 07:08:39;;;;;;;6.88;0.98;;;23.20;99.90;;;;;;5044078;28;20029;-64
2022/02/27 07:11:06;;;;;;;5.10;0.73;;;23.20;99.90;;;;;;5056928;28;20036;-64
2022/02/27 07:13:33;;;;;;;4.25;1.00;;;23.20;99.90;;;;;;5057249;28;20021;-64
2022/02/27 07:16:01;;;;;;;4.15;0.73;;;23.10;99.90;;;;;;5038953;28;20017;-64
2022/02/27 07:18:28;;;;;;;3.75;0.40;;;23.10;99.90;;;;;;5045365;28;20056;-64
2022/02/27 07:20:55;;;;;;;4.22;0.80;;;23.10;99.90;;;;;;5056238;28;20024;-64
2022/02/27 07:23:23;;;;;;;5.47;0.68;;;23.10;99.90;;;;;;5056067;28;20021;-63
2022/02/27 07:25:50;;;;;;;3.13;0.57;;;23.00;99.90;;;;;;5046667;28;20031;-64
2022/02/27 07:28:17;;;;;;;3.88;0.88;;;23.00;99.90;;;;;;5055850;28;20107;-64
2022/02/27 07:30:44;;;;;;;4.50;0.93;;;23.00;99.90;;;;;;5055830;28;20385;-64
2022/02/27 07:33:12;;;;;;;4.70;0.90;;;22.90;99.90;;;;;;5055115;28;20091;-64
2022/02/27 07:35:39;;;;;;;6.95;0.80;;;23.00;99.90;;;;;;5046250;28;20033;-64
2022/02/27 07:38:09;;;;;;;3.25;0.57;;;22.90;99.90;;;;;;5043450;28;20484;-63
2022/02/27 07:40:37;;;;;;;3.28;0.50;;;23.00;99.90;;;;;;5051005;22;20525;-64
2022/02/27 07:43:05;;;;;;;9.18;0.88;;;22.90;99.90;;;;;;5036408;28;20037;-64
2022/02/27 07:45:32;;;;;;;25.95;19.48;;;22.90;99.90;;;;;;5034746;28;20467;-65
2022/02/27 07:47:59;;;;;;;18.98;9.35;;;22.90;99.90;;;;;;5025160;28;20048;-65
2022/02/27 07:50:26;;;;;;;19.63;9.32;;;22.80;99.90;;;;;;5022962;28;20405;-64
2022/02/27 07:52:54;;;;;;;15.93;11.50;;;22.80;99.90;;;;;;5022452;28;20068;-65
2022/02/27 07:55:21;;;;;;;24.95;22.23;;;22.80;99.90;;;;;;5038896;28;20425;-64
2022/02/27 07:57:48;;;;;;;6.55;4.40;;;22.70;99.90;;;;;;5017805;28;20022;-65
2022/02/27 08:00:16;;;;;;;9.30;3.97;;;22.80;99.90;;;;;;5028713;28;20026;-64
2022/02/27 08:02:43;;;;;;;8.23;3.78;;;22.70;99.90;;;;;;5024039;28;20014;-65
2022/02/27 08:05:11;;;;;;;5.32;2.25;;;22.70;99.90;;;;;;5023979;28;20439;-64
2022/02/27 08:07:38;;;;;;;4.47;2.25;;;22.70;99.90;;;;;;5030056;28;20035;-65
2022/02/27 08:10:06;;;;;;;6.00;2.63;;;22.70;99.90;;;;;;5025571;28;20038;-64
2022/02/27 08:12:33;;;;;;;6.88;2.10;;;22.70;99.90;;;;;;5024290;28;20026;-65
2022/02/27 08:15:00;;;;;;;7.05;1.33;;;22.70;99.90;;;;;;5021831;28;20029;-65
2022/02/27 08:17:28;;;;;;;3.90;1.38;;;22.70;99.90;;;;;;5021896;28;20018;-65
2022/02/27 08:19:55;;;;;;;6.18;1.50;;;22.70;99.90;;;;;;5021010;28;20028;-65
2022/02/27 08:22:22;;;;;;;3.50;0.85;;;22.70;99.90;;;;;;5034347;28;20036;-65
2022/02/27 08:24:49;;;;;;;6.97;1.05;;;22.60;99.90;;;;;;5036624;28;20378;-65
2022/02/27 08:27:17;;;;;;;6.30;1.90;;;22.60;99.90;;;;;;5025515;28;20061;-65
2022/02/27 08:29:44;;;;;;;9.85;1.25;;;22.60;99.90;;;;;;5016966;28;20057;-65
2022/02/27 08:32:11;;;;;;;5.82;1.25;;;22.60;99.90;;;;;;5020970;28;20045;-65
2022/02/27 08:34:38;;;;;;;1.90;0.73;;;22.60;99.90;;;;;;5022983;28;20029;-65
2022/02/27 08:37:06;;;;;;;6.13;1.52;;;22.60;99.90;;;;;;5027731;28;20030;-65
2022/02/27 08:39:34;;;;;;;5.85;0.85;;;22.60;99.90;;;;;;5005177;28;20045;-65
2022/02/27 08:42:03;;;;;;;6.10;0.90;;;22.50;99.90;;;;;;5032669;28;20036;-65
2022/02/27 08:44:34;;;;;;;5.25;1.27;;;22.50;99.90;;;;;;5023719;28;20053;-65
2022/02/27 08:47:02;;;;;;;4.95;1.20;;;22.50;99.90;;;;;;5021378;28;20026;-65
2022/02/27 08:49:30;;;;;;;5.97;1.25;;;22.50;99.90;;;;;;5009313;28;20022;-65
2022/02/27 08:51:58;;;;;;;6.60;1.10;;;22.50;99.90;;;;;;5019304;28;20030;-65
2022/02/27 08:54:25;;;;;;;2.75;0.88;;;22.50;99.90;;;;;;5019333;28;20037;-65
2022/02/27 08:56:52;;;;;;;8.90;1.42;;;22.50;99.90;;;;;;5027710;28;20018;-65
2022/02/27 08:59:20;;;;;;;6.40;1.17;;;22.50;99.90;;;;;;5026807;28;20108;-65
2022/02/27 09:01:47;;;;;;;5.65;1.02;;;22.50;99.90;;;;;;5023098;28;20038;-65
2022/02/27 09:04:14;;;;;;;4.43;0.90;;;22.50;99.90;;;;;;5014006;28;20456;-65
2022/02/27 09:09:20;;;;;;;5.82;1.23;;;22.50;99.90;;;;;;5016557;28;20037;-64
2022/02/27 09:11:47;;;;;;;9.27;1.30;;;22.40;99.90;;;;;;5022222;28;20030;-65
2022/02/27 09:14:15;;;;;;;5.53;0.85;;;22.40;99.90;;;;;;5017338;28;20088;-65
2022/02/27 09:16:42;;;;;;;5.68;0.77;;;22.40;99.90;;;;;;5015474;28;20030;-65
2022/02/27 09:19:10;;;;;;;5.72;1.05;;;22.30;99.90;;;;;;5018550;28;20029;-65
2022/02/27 09:21:37;;;;;;;5.65;1.05;;;22.20;99.90;;;;;;5028102;28;20490;-65
2022/02/27 09:24:06;;;;;;;5.40;1.15;;;22.20;99.90;;;;;;5025502;28;20033;-65
2022/02/27 09:26:34;;;;;;;6.22;0.70;;;22.20;99.90;;;;;;5015110;28;20061;-64
2022/02/27 09:29:02;;;;;;;7.13;1.27;;;22.20;99.90;;;;;;5020252;28;20041;-65
2022/02/27 09:31:29;;;;;;;7.97;1.15;;;22.10;99.90;;;;;;5035199;28;20041;-65
2022/02/27 09:33:57;;;;;;;5.05;0.82;;;22.20;99.90;;;;;;5028970;28;20418;-65
2022/02/27 09:36:26;;;;;;;6.88;1.30;;;22.20;99.90;;;;;;5016257;28;20032;-65
2022/02/27 09:38:54;;;;;;;5.35;1.85;;;22.10;99.90;;;;;;5015760;28;20029;-65
2022/02/27 09:41:21;;;;;;;6.00;0.80;;;22.10;99.90;;;;;;5014339;28;20502;-65
2022/02/27 09:44:01;;;;;;;7.70;0.95;;;22.10;99.90;;;;;;5016975;28;20026;-65
2022/02/27 09:46:31;;;;;;;5.70;0.70;;;22.10;99.90;;;;;;5018739;28;20148;-64
2022/02/27 09:48:59;;;;;;;8.75;1.15;;;22.10;99.90;;;;;;5030146;28;20049;-65
2022/02/27 09:51:27;;;;;;;7.90;1.42;;;22.10;99.90;;;;;;5032383;28;20022;-65
2022/02/27 09:53:55;;;;;;;6.38;0.73;;;22.10;99.90;;;;;;5009574;28;20057;-65
2022/02/27 09:56:23;;;;;;;4.93;0.90;;;22.10;99.90;;;;;;5026921;28;20024;-65
2022/02/27 09:58:51;;;;;;;3.63;1.00;;;22.10;99.90;;;;;;5024104;28;20069;-65
2022/02/27 10:01:18;;;;;;;8.60;0.80;;;22.10;99.90;;;;;;5004602;28;20125;-65
2022/02/27 10:03:46;;;;;;;5.13;0.43;;;22.10;99.90;;;;;;5016119;28;20042;-65
2022/02/27 10:06:19;;;;;;;6.63;0.85;;;22.10;99.90;;;;;;5019555;28;20128;-65
2022/02/27 10:08:54;;;;;;;3.45;0.43;;;22.10;99.90;;;;;;5018315;28;20044;-65
2022/02/27 10:11:22;;;;;;;5.95;1.00;;;22.00;99.90;;;;;;5021604;28;20026;-65
2022/02/27 10:13:55;;;;;;;4.85;0.77;;;22.00;99.90;;;;;;5023648;28;20038;-65
2022/02/27 10:16:24;;;;;;;;;;;22.00;99.90;;;;;;5024682;28;20025;-65
2022/02/27 10:18:54;;;;;;;4.38;0.55;;;22.00;99.90;;;;;;5012249;28;20336;-65
2022/02/27 10:21:22;;;;;;;6.72;0.98;;;21.90;99.90;;;;;;5026978;28;20026;-65
2022/02/27 10:24:11;;;;;;;5.47;1.10;;;22.00;99.90;;;;;;5020396;28;20038;-65
2022/02/27 10:26:41;;;;;;;6.03;0.88;;;21.90;99.90;;;;;;5021490;28;20037;-65
2022/02/27 10:29:23;;;;;;;8.60;1.35;;;21.90;99.90;;;;;;4989399;28;20034;-65
2022/02/27 10:31:57;;;;;;;8.63;0.95;;;21.90;99.90;;;;;;5000941;28;20104;-65
2022/02/27 10:34:27;;;;;;;4.63;0.50;;;22.00;99.90;;;;;;4989000;28;20041;-65
2022/02/27 10:37:06;;;;;;;7.72;0.90;;;22.00;99.90;;;;;;5024406;28;20034;-65
2022/02/27 10:39:46;;;;;;;6.20;0.77;;;22.00;99.90;;;;;;5009224;28;20045;-66
2022/02/27 10:42:25;;;;;;;8.98;0.85;;;22.00;99.90;;;;;;5014111;28;20087;-66
2022/02/27 10:45:04;;;;;;;8.10;1.55;;;22.00;99.90;;;;;;5012629;28;20081;-66
2022/02/27 10:47:35;;;;;;;8.52;0.95;;;21.90;99.90;;;;;;4999888;28;20042;-66
2022/02/27 10:50:19;;;;;;;7.80;1.10;;;21.90;99.90;;;;;;4999432;28;20075;-66
2022/02/27 10:52:47;;;;;;;6.82;1.10;;;21.90;99.90;;;;;;4978452;28;20129;-66
2022/02/27 10:55:17;;;;;;;6.97;1.10;;;21.90;99.90;;;;;;5016834;28;20080;-66
2022/02/27 10:57:50;;;;;;;7.57;0.90;;;21.90;99.90;;;;;;5013616;28;20018;-66
2022/02/27 11:00:29;;;;;;;7.97;1.27;;;21.90;99.90;;;;;;5005202;28;20046;-66
2022/02/27 11:03:02;;;;;;;8.27;0.88;;;21.80;99.90;;;;;;5023204;28;20056;-66
2022/02/27 11:05:34;;;;;;;7.32;1.50;;;21.80;99.90;;;;;;5014024;28;20017;-66
2022/02/27 11:08:04;;;;;;;8.95;1.15;;;21.80;99.90;;;;;;4996307;28;20041;-66
2022/02/27 11:10:35;;;;;;;6.72;0.95;;;21.70;99.90;;;;;;5013526;28;20060;-66
2022/02/27 11:13:05;;;;;;;8.57;1.05;;;21.70;99.90;;;;;;5016783;28;20022;-66
2022/02/27 11:15:33;;;;;;;6.05;1.35;;;21.70;99.90;;;;;;5015162;28;20030;-66
2022/02/27 11:18:01;;;;;;;7.80;1.67;;;21.70;99.90;;;;;;5015343;28;20034;-66
2022/02/27 11:20:28;;;;;;;4.10;0.82;;;21.70;99.90;;;;;;5015220;28;20036;-66
2022/02/27 11:22:57;;;;;;;7.63;1.45;;;21.70;99.90;;;;;;5014099;28;20498;-66
2022/02/27 11:25:30;;;;;;;7.38;1.38;;;21.70;99.90;;;;;;5014187;28;20033;-66
2022/02/27 11:28:07;;;;;;;7.22;1.65;;;21.60;99.90;;;;;;5019571;28;20581;-66
2022/02/27 11:30:45;;;;;;;6.30;0.80;;;21.70;99.90;;;;;;4998598;28;20045;-66
2022/02/27 11:33:25;;;;;;;5.13;0.75;;;21.70;99.90;;;;;;5014757;28;20022;-66
2022/02/27 11:35:57;;;;;;;9.30;1.52;;;21.70;99.90;;;;;;4999455;28;20018;-66
2022/02/27 11:38:31;;;;;;;7.45;0.80;;;21.70;99.90;;;;;;5014119;28;20084;-66
2022/02/27 11:41:09;;;;;;;5.10;0.63;;;21.70;99.90;;;;;;5014679;28;20038;-66
2022/02/27 11:43:56;;;;;;;4.35;1.20;;;21.70;99.90;;;;;;5011669;28;20097;-66
2022/02/27 11:46:43;;;;;;;4.78;1.35;;;21.80;99.90;;;;;;5014247;28;20028;-66
2022/02/27 11:49:20;;;;;;;6.55;0.82;;;21.80;99.90;;;;;;5014723;28;20030;-66
2022/02/27 11:52:00;;;;;;;7.85;1.02;;;21.80;99.90;;;;;;4999410;28;20491;-66
2022/02/27 11:54:39;;;;;;;6.50;0.73;;;21.80;99.90;;;;;;5004759;28;20022;-66
2022/02/27 11:57:16;;;;;;;5.03;1.10;;;21.70;99.90;;;;;;5017576;28;20045;-66
2022/02/27 12:00:07;;;;;;;4.38;0.57;;;21.70;99.90;;;;;;5011311;28;20092;-66
2022/02/27 12:02:43;;;;;;;6.68;1.13;;;21.70;99.90;;;;;;5013960;28;20034;-66
2022/02/27 12:05:13;;;;;;;9.20;1.10;;;21.70;99.90;;;;;;5009960;28;20065;-66
2022/02/27 12:08:00;;;;;;;8.73;1.08;;;21.70;99.90;;;;;;5013819;28;20026;-66
2022/02/27 12:10:36;;;;;;;4.63;1.05;;;21.70;99.90;;;;;;5011262;28;20032;-66
2022/02/27 12:13:16;;;;;;;7.00;0.85;;;21.70;99.90;;;;;;5012073;28;20108;-66
2022/02/27 12:16:02;;;;;;;6.82;1.00;;;21.60;99.90;;;;;;5008277;28;20033;-66
2022/02/27 12:18:29;;;;;;;4.78;0.90;;;21.60;99.90;;;;;;5011006;28;20365;-66
2022/02/27 12:20:59;;;;;;;6.57;0.93;;;21.60;99.90;;;;;;5013982;28;20026;-66
2022/02/27 12:23:41;;;;;;;4.35;0.98;;;21.70;99.90;;;;;;5010261;28;20446;-66
2022/02/27 12:26:12;;;;;;;6.88;1.02;;;21.70;99.90;;;;;;5007672;28;20490;-66
2022/02/27 12:28:48;;;;;;;8.02;0.85;;;21.70;99.90;;;;;;4994635;28;20482;-66
2022/02/27 12:31:20;;;;;;;5.28;1.23;;;21.70;99.90;;;;;;5014931;28;20041;-66
2022/02/27 12:33:49;;;;;;;4.60;0.82;;;21.70;99.90;;;;;;5011196;28;20022;-66
2022/02/27 12:36:37;;;;;;;6.05;1.08;;;21.60;99.90;;;;;;5018065;28;20041;-66
2022/02/27 12:39:11;;;;;;;5.13;0.80;;;21.60;99.90;;;;;;5012494;28;20033;-66
2022/02/27 12:41:43;;;;;;;;;;;21.70;99.90;;;;;;4999426;28;20034;-66
2022/02/27 12:44:18;;;;;;;11.32;1.35;;;21.70;99.90;;;;;;4994008;28;19913;-65
2022/02/27 12:46:45;;;;;;;10.32;1.20;;;21.70;99.90;;;;;;5003229;28;20526;-66
2022/02/27 12:51:56;;;;;;;7.75;1.08;;;21.70;99.90;;;;;;5017939;28;20029;-66
2022/02/27 12:54:27;;;;;;;6.32;0.93;;;21.70;99.90;;;;;;5011759;28;20053;-66
2022/02/27 12:57:08;;;;;;;9.48;1.45;;;21.70;99.90;;;;;;5014029;28;20155;-66
2022/02/27 12:59:40;;;;;;;5.82;0.70;;;21.70;99.90;;;;;;5008122;28;20037;-66
2022/02/27 13:02:18;;;;;;;10.65;1.00;;;21.70;99.90;;;;;;5014489;28;20037;-66